Time;durP1;ratioP1;P1;durP2;ratioP2;P2;SDS_P1;SDS_P2;PMS_P1;PMS_P2;Temp;Humidity;BMP_temperature;BMP_pressure;BME280_temperature;BME280_humidity;BME280_pressure;Samples;Min_cycle;Max_cycle;Signal;HPM_P1;HPM_P2
2022/09/09 00:00:47;;;;;;;2.65;1.80;;;;;;;16.38;77.50;100696.66;5094245;28;20426;-79
2022/09/09 00:03:19;;;;;;;3.50;1.90;;;;;;;16.33;77.31;100678.06;5096314;28;20037;-79
2022/09/09 00:05:56;;;;;;;4.05;1.90;;;;;;;16.33;77.71;100686.06;5097244;28;20134;-79
2022/09/09 00:08:42;;;;;;;4.20;1.80;;;;;;;16.36;77.44;100685.13;5097313;28;20032;-79
2022/09/09 00:11:12;;;;;;;3.13;1.83;;;;;;;16.39;77.38;100680.63;5096897;28;20486;-79
2022/09/09 00:13:46;;;;;;;3.75;1.90;;;;;;;16.40;77.19;100677.06;5097472;28;20085;-79
2022/09/09 00:16:19;;;;;;;4.35;1.83;;;;;;;16.27;77.97;100681.72;5097107;28;20073;-79
2022/09/09 00:18:54;;;;;;;4.10;1.90;;;;;;;16.21;78.28;100683.56;5096835;28;20024;-79
2022/09/09 00:21:24;;;;;;;3.97;1.70;;;;;;;16.09;78.91;100684.63;5096750;28;20020;-79
2022/09/09 00:23:52;;;;;;;2.92;1.77;;;;;;;16.03;78.88;100679.41;5096812;28;20114;-79
2022/09/09 00:26:53;;;;;;;4.72;1.77;;;;;;;16.00;78.22;100671.44;5096562;28;20032;-79
2022/09/09 00:29:42;;;;;;;2.90;1.65;;;;;;;15.92;79.25;100673.31;5042886;28;20048;-79
2022/09/09 00:32:18;;;;;;;4.60;1.80;;;;;;;15.85;79.35;100679.66;5079170;28;20177;-79
2022/09/09 00:35:11;;;;;;;4.28;1.88;;;;;;;15.73;80.07;100684.25;5078307;28;20028;-80
2022/09/09 00:37:38;;;;;;;3.20;1.70;;;;;;;15.60;80.92;100676.41;5096896;28;20039;-79
2022/09/09 00:40:33;;;;;;;3.90;1.63;;;;;;;15.48;81.22;100662.31;5096690;28;20115;-79
2022/09/09 00:43:31;;;;;;;2.78;1.48;;;;;;;15.55;81.20;100680.91;5091177;28;20043;-79
2022/09/09 00:46:26;;;;;;;4.05;1.60;;;;;;;15.49;81.94;100679.19;5096314;28;20092;-79
2022/09/09 00:49:15;;;;;;;3.65;1.63;;;;;;;15.56;81.39;100664.91;5057223;28;20048;-79
2022/09/09 00:52:04;;;;;;;3.03;1.75;;;;;;;15.55;80.98;100671.13;5096443;28;20080;-79
2022/09/09 00:54:32;;;;;;;3.40;1.63;;;;;;;15.59;81.12;100666.63;5046875;28;20401;-79
2022/09/09 00:57:23;;;;;;;6.55;1.70;;;;;;;15.65;80.32;100655.94;5096277;28;20046;-79
2022/09/09 00:59:57;;;;;;;2.80;1.60;;;;;;;15.78;80.17;100657.53;5095922;28;20044;-79
2022/09/09 01:02:38;;;;;;;2.35;1.52;;;;;;;15.93;79.49;100659.09;5096054;28;20027;-79
2022/09/09 01:05:22;;;;;;;4.43;1.50;;;;;;;15.93;78.96;100659.09;5095943;28;20059;-79
2022/09/09 01:07:49;;;;;;;3.05;1.58;;;;;;;15.98;78.75;100662.59;5096469;28;20028;-79
2022/09/09 01:10:43;;;;;;;2.35;1.52;;;;;;;16.05;78.78;100666.03;5096146;28;20032;-79
2022/09/09 01:13:19;;;;;;;1.48;1.30;;;;;;;15.96;79.13;100659.06;5095638;28;20020;-80
2022/09/09 01:15:46;;;;;;;3.10;1.50;;;;;;;15.95;79.25;100654.63;5096335;28;20165;-79
2022/09/09 01:18:17;;;;;;;3.38;1.65;;;;;;;15.82;79.39;100661.03;5096026;28;20114;-79
2022/09/09 01:21:01;;;;;;;5.20;1.90;;;;;;;15.86;79.20;100660.09;5095715;28;20032;-79
2022/09/09 01:23:29;;;;;;;2.25;1.50;;;;;;;15.92;79.54;100657.34;5095648;28;20036;-79
2022/09/09 01:26:18;;;;;;;5.07;1.75;;;;;;;15.96;79.17;100653.72;5095741;28;20039;-79
2022/09/09 01:28:49;;;;;;;2.50;1.40;;;;;;;16.02;78.72;100653.66;5096009;28;20032;-79
2022/09/09 01:31:21;;;;;;;4.22;1.70;;;;;;;16.05;78.33;100642.94;5095940;28;20065;-79
2022/09/09 01:33:47;;;;;;;4.38;1.50;;;;;;;16.12;78.86;100649.06;5078079;28;20382;-79
2022/09/09 01:36:17;;;;;;;3.42;1.70;;;;;;;16.16;78.21;100646.31;5095877;28;20035;-79
2022/09/09 01:38:42;;;;;;;4.40;1.90;;;;;;;16.17;78.19;100645.41;5095861;28;20028;-79
2022/09/09 01:41:08;;;;;;;3.80;1.90;;;;;;;16.24;78.14;100641.75;5095743;28;20035;-79
2022/09/09 01:43:33;;;;;;;3.80;1.80;;;;;;;16.22;77.90;100640.88;5095409;28;20420;-79
2022/09/09 01:46:00;;;;;;;4.72;2.00;;;;;;;16.14;78.45;100642.78;5095585;28;20043;-78
2022/09/09 01:48:27;;;;;;;4.43;1.70;;;;;;;16.12;78.77;100631.28;5094994;28;20462;-79
2022/09/09 01:50:52;;;;;;;5.28;2.05;;;;;;;15.99;79.12;100637.69;5095273;28;20024;-79
2022/09/09 01:53:20;;;;;;;4.38;1.83;;;;;;;15.91;79.74;100637.81;5095159;28;20390;-79
2022/09/09 01:55:54;;;;;;;6.70;1.80;;;;;;;15.93;79.49;100636.03;5094901;28;20028;-79
2022/09/09 01:58:43;;;;;;;7.13;2.00;;;;;;;15.93;79.49;100628.03;5095190;28;20086;-79
2022/09/09 02:01:22;;;;;;;4.55;2.10;;;;;;;15.92;79.42;100647.56;5094874;28;20138;-79
2022/09/09 02:03:53;;;;;;;4.30;2.00;;;;;;;16.03;79.10;100642.09;5095080;28;20032;-80
2022/09/09 02:06:37;;;;;;;5.90;2.10;;;;;;;16.00;78.99;100628.78;5094636;28;20474;-79
2022/09/09 02:09:06;;;;;;;5.22;1.98;;;;;;;16.06;78.45;100627.81;5094657;28;20028;-80
2022/09/09 02:11:32;;;;;;;5.72;1.80;;;;;;;16.06;78.63;100630.47;5094627;28;20111;-79
2022/09/09 02:14:02;;;;;;;4.00;1.88;;;;;;;16.00;78.75;100610.13;5094578;28;20043;-79
2022/09/09 02:16:49;;;;;;;6.72;2.00;;;;;;;16.09;78.65;100626.00;5094489;28;20028;-79
2022/09/09 02:19:41;;;;;;;5.35;1.90;;;;;;;16.11;78.53;100608.19;5094529;28;20465;-79
2022/09/09 02:22:07;;;;;;;2.95;1.85;;;;;;;16.07;78.07;100610.94;5094770;28;20028;-79
2022/09/09 02:24:40;;;;;;;4.18;1.90;;;;;;;16.07;78.13;100617.16;5094092;28;20051;-79
2022/09/09 02:27:08;;;;;;;5.70;1.98;;;;;;;16.14;77.76;100612.59;5094597;28;20028;-79
2022/09/09 02:29:38;;;;;;;6.50;2.15;;;;;;;16.18;77.74;100624.97;5094389;28;20036;-79
2022/09/09 02:32:09;;;;;;;4.45;2.20;;;;;;;16.16;77.48;100609.00;5094338;28;20497;-80
2022/09/09 02:34:39;;;;;;;6.13;1.92;;;;;;;16.21;77.18;100609.81;5094325;28;20038;-79
2022/09/09 02:37:08;;;;;;;5.70;2.03;;;;;;;16.03;77.78;100608.31;5094311;28;20501;-80
2022/09/09 02:39:33;;;;;;;2.92;1.80;;;;;;;16.01;77.57;100602.09;5094276;28;20546;-79
2022/09/09 02:41:59;;;;;;;4.65;1.90;;;;;;;16.13;77.50;100617.03;5075808;28;20040;-78
2022/09/09 02:44:25;;;;;;;4.28;1.95;;;;;;;16.06;77.81;100611.81;5093788;28;20475;-80
2022/09/09 02:47:17;;;;;;;7.47;2.30;;;;;;;16.06;77.33;100603.81;5076422;28;20028;-79
2022/09/09 02:50:02;;;;;;;6.80;2.00;;;;;;;16.09;77.16;100604.66;5094865;28;20105;-79
2022/09/09 02:52:35;;;;;;;7.25;2.10;;;;;;;16.09;77.42;100615.31;5094364;28;20476;-79
2022/09/09 02:55:11;;;;;;;4.47;2.00;;;;;;;16.05;77.75;100616.28;5094373;28;20028;-79
2022/09/09 02:57:38;;;;;;;4.07;1.95;;;;;;;16.03;77.65;100624.31;5094011;28;20036;-79
2022/09/09 03:00:05;;;;;;;3.65;1.90;;;;;;;16.00;77.88;100620.81;5094410;28;20487;-79
2022/09/09 03:02:30;;;;;;;6.32;2.05;;;;;;;16.02;77.56;100622.56;5093801;28;20103;-79
2022/09/09 03:04:56;;;;;;;3.70;2.05;;;;;;;15.94;77.92;100621.78;5094157;28;20116;-79
2022/09/09 03:07:21;;;;;;;5.75;2.13;;;;;;;15.98;78.10;100617.28;5093758;28;20478;-79
2022/09/09 03:09:47;;;;;;;6.72;2.20;;;;;;;16.01;78.13;100618.09;5093812;28;20469;-79
2022/09/09 03:12:12;;;;;;;5.60;2.17;;;;;;;15.92;77.97;100612.91;5093765;28;20028;-79
2022/09/09 03:14:38;;;;;;;8.77;2.25;;;;;;;15.88;77.94;100610.31;5094019;28;20039;-79
2022/09/09 03:17:05;;;;;;;8.02;1.92;;;;;;;15.91;78.30;100612.94;5095383;28;20174;-80
2022/09/09 03:19:31;;;;;;;6.32;2.20;;;;;;;15.83;78.37;100620.16;5094651;28;20028;-80
2022/09/09 03:21:57;;;;;;;7.18;2.00;;;;;;;15.81;78.53;100627.31;5094020;28;20028;-80
2022/09/09 03:24:23;;;;;;;4.05;1.85;;;;;;;15.79;79.11;100629.97;5076083;28;20109;-79
2022/09/09 03:26:50;;;;;;;7.93;2.25;;;;;;;15.62;79.91;100629.31;5094094;28;20060;-80
2022/09/09 03:29:17;;;;;;;7.07;2.15;;;;;;;15.66;79.84;100639.06;5093554;28;20157;-80
2022/09/09 03:31:42;;;;;;;7.35;2.30;;;;;;;15.56;80.16;100635.59;5093591;28;20119;-79
2022/09/09 03:34:08;;;;;;;5.65;2.10;;;;;;;15.49;81.25;100632.13;5093536;28;20111;-79
2022/09/09 03:36:33;;;;;;;7.15;2.35;;;;;;;15.41;81.59;100623.34;5093598;28;20035;-80
2022/09/09 03:39:00;;;;;;;6.85;2.33;;;;;;;15.51;81.85;100630.34;5079591;28;20036;-79
2022/09/09 03:41:26;;;;;;;4.45;2.28;;;;;;;15.50;81.60;100625.94;5080158;28;20462;-80
2022/09/09 03:43:51;;;;;;;7.45;2.42;;;;;;;15.58;81.38;100622.25;5097507;28;20043;-79
2022/09/09 03:46:18;;;;;;;5.15;2.20;;;;;;;15.61;80.52;100625.75;5097109;28;20115;-79
2022/09/09 03:48:44;;;;;;;7.35;2.30;;;;;;;15.67;81.13;100631.06;5097981;28;20089;-79
2022/09/09 03:51:10;;;;;;;5.50;2.40;;;;;;;15.65;81.18;100629.31;5097674;28;20028;-79
2022/09/09 03:53:36;;;;;;;5.63;2.20;;;;;;;15.57;81.28;100613.38;5097580;28;20028;-80
2022/09/09 03:56:03;;;;;;;8.32;2.28;;;;;;;15.57;81.83;100629.38;5097317;28;20497;-79
2022/09/09 03:58:28;;;;;;;7.65;2.30;;;;;;;15.47;82.80;100623.28;5097751;28;20115;-79
2022/09/09 04:01:05;;;;;;;5.75;2.30;;;;;;;15.39;83.51;100618.97;5097028;28;20490;-80
2022/09/09 04:03:31;;;;;;;8.60;2.60;;;;;;;15.21;83.63;100612.09;5097296;28;20110;-80
2022/09/09 04:05:59;;;;;;;4.75;2.17;;;;;;;15.37;83.14;100626.94;5097306;28;20085;-80
2022/09/09 04:08:27;;;;;;;4.10;2.13;;;;;;;15.38;83.48;100622.53;5097055;28;20119;-80
2022/09/09 04:10:57;;;;;;;6.75;2.30;;;;;;;15.30;84.01;100621.75;5097608;28;20036;-80
2022/09/09 04:13:24;;;;;;;5.75;2.47;;;;;;;15.35;83.98;100611.91;5098079;28;20032;-80
2022/09/09 04:15:55;;;;;;;5.88;2.10;;;;;;;15.38;83.82;100618.09;5097362;28;20602;-80
2022/09/09 04:18:21;;;;;;;5.95;2.17;;;;;;;15.26;83.85;100608.47;5097051;28;20032;-80
2022/09/09 04:20:51;;;;;;;4.65;2.03;;;;;;;15.28;84.14;100609.31;5096640;28;20111;-80
2022/09/09 04:23:20;;;;;;;6.25;2.10;;;;;;;15.27;84.25;100610.22;5097678;28;20040;-80
2022/09/09 04:25:51;;;;;;;5.95;2.47;;;;;;;15.18;85.12;100605.00;5096642;28;20496;-79
2022/09/09 04:28:17;;;;;;;6.63;2.17;;;;;;;15.18;85.39;100617.44;5096809;28;20047;-80
2022/09/09 04:30:44;;;;;;;6.35;2.50;;;;;;;15.17;84.98;100613.91;5096441;28;20476;-80
2022/09/09 04:33:10;;;;;;;9.60;2.60;;;;;;;15.13;85.28;100611.28;5096416;28;20047;-80
2022/09/09 04:35:37;;;;;;;8.55;2.10;;;;;;;15.13;85.44;100592.66;5096534;28;20481;-80
2022/09/09 04:38:03;;;;;;;7.63;2.50;;;;;;;15.17;85.70;100605.91;5096596;28;20389;-79
2022/09/09 04:40:29;;;;;;;7.22;2.47;;;;;;;15.14;85.90;100613.94;5096460;28;20040;-80
2022/09/09 04:42:57;;;;;;;6.93;2.70;;;;;;;15.11;85.97;100597.13;5096776;28;20043;-80
2022/09/09 04:45:22;;;;;;;6.47;2.42;;;;;;;15.07;86.05;100595.38;5096410;28;20032;-80
2022/09/09 04:47:48;;;;;;;9.95;2.67;;;;;;;15.10;86.23;100609.53;5096516;28;20442;-80
2022/09/09 04:50:15;;;;;;;6.68;2.53;;;;;;;15.01;87.03;100609.66;5078408;28;20032;-80
2022/09/09 04:52:41;;;;;;;8.98;2.60;;;;;;;14.98;87.13;100601.69;5096232;28;20466;-79
2022/09/09 04:55:07;;;;;;;6.32;2.85;;;;;;;14.96;87.05;100601.72;5095971;28;20032;-79
2022/09/09 04:57:32;;;;;;;7.43;2.72;;;;;;;14.90;87.65;100600.91;5096098;28;20470;-80
2022/09/09 04:59:59;;;;;;;8.32;2.55;;;;;;;14.87;87.95;100596.50;5096092;28;20048;-80
2022/09/09 05:02:25;;;;;;;7.13;2.70;;;;;;;14.87;88.00;100599.16;5096005;28;20024;-80
2022/09/09 05:04:51;;;;;;;9.48;2.72;;;;;;;14.92;87.96;100591.13;5096139;28;20115;-80
2022/09/09 05:07:16;;;;;;;9.20;2.90;;;;;;;14.87;88.10;100600.94;5095721;28;20114;-80
2022/09/09 05:09:42;;;;;;;7.03;2.53;;;;;;;14.84;88.52;100587.66;5077617;28;20040;-80
2022/09/09 05:12:08;;;;;;;5.65;2.42;;;;;;;14.82;88.57;100593.03;5096325;28;20369;-80
2022/09/09 05:14:34;;;;;;;8.77;2.70;;;;;;;14.92;88.27;100602.66;5095484;28;20082;-79
2022/09/09 05:16:59;;;;;;;7.13;2.53;;;;;;;14.99;88.25;100592.84;5095377;28;20184;-79
2022/09/09 05:19:24;;;;;;;8.93;2.63;;;;;;;14.96;88.21;100592.88;5095695;28;20107;-80
2022/09/09 05:21:50;;;;;;;6.95;2.88;;;;;;;14.95;87.75;100591.97;5095595;28;20036;-80
2022/09/09 05:24:16;;;;;;;7.97;2.40;;;;;;;14.95;88.01;100594.66;5095464;28;20032;-80
2022/09/09 05:26:42;;;;;;;4.93;2.47;;;;;;;14.97;88.15;100597.28;5095087;28;20508;-80
2022/09/09 05:29:08;;;;;;;7.53;2.63;;;;;;;14.98;87.70;100591.03;5095193;28;20393;-79
2022/09/09 05:31:33;;;;;;;6.40;2.55;;;;;;;15.00;88.09;100589.28;5095388;28;20028;-79
2022/09/09 05:33:59;;;;;;;10.57;2.65;;;;;;;15.06;87.92;100585.66;5095677;28;20032;-79
2022/09/09 05:36:24;;;;;;;7.38;2.50;;;;;;;15.11;87.79;100589.13;5095540;28;20044;-79
2022/09/09 05:38:50;;;;;;;9.02;2.40;;;;;;;15.11;87.62;100583.81;5095248;28;20032;-79
2022/09/09 05:41:17;;;;;;;9.80;2.60;;;;;;;15.14;87.45;100586.44;5094964;28;20047;-80
2022/09/09 05:43:47;;;;;;;7.75;2.47;;;;;;;15.11;87.65;100590.00;5095126;28;20081;-80
2022/09/09 05:46:18;;;;;;;8.40;2.53;;;;;;;15.09;87.76;100590.94;5095354;28;20370;-80
2022/09/09 05:48:46;;;;;;;11.00;2.78;;;;;;;15.08;87.78;100589.19;5095162;28;20024;-80
2022/09/09 05:51:17;;;;;;;6.28;2.42;;;;;;;15.14;87.81;100605.06;5095265;28;20032;-80
2022/09/09 05:53:44;;;;;;;7.60;2.50;;;;;;;15.23;87.91;100605.81;5095017;28;20032;-80
2022/09/09 05:56:29;;;;;;;9.30;2.42;;;;;;;15.31;87.95;100602.19;5094928;28;20469;-80
2022/09/09 05:58:56;;;;;;;10.45;2.50;;;;;;;15.32;88.11;100607.50;5093863;28;20047;-79
2022/09/09 06:01:24;;;;;;;8.40;2.60;;;;;;;15.36;88.05;100611.88;5094592;28;20519;-80
2022/09/09 06:03:50;;;;;;;8.13;2.80;;;;;;;15.36;87.50;100617.22;5094812;28;20492;-79
2022/09/09 06:06:22;;;;;;;8.85;2.63;;;;;;;15.43;87.55;100613.56;5094977;28;20121;-79
2022/09/09 06:08:51;;;;;;;10.63;2.53;;;;;;;15.50;87.03;100606.38;5094606;28;20034;-79
2022/09/09 06:11:19;;;;;;;10.40;2.70;;;;;;;15.55;87.33;100612.53;5094670;28;20032;-79
2022/09/09 06:13:44;;;;;;;10.50;2.25;;;;;;;15.60;86.71;100612.47;5094789;28;20046;-79
2022/09/09 06:16:11;;;;;;;9.82;2.53;;;;;;;15.66;87.03;100607.09;5094722;28;20457;-78
2022/09/09 06:18:38;;;;;;;8.93;2.53;;;;;;;15.70;86.58;100604.34;5076714;28;20101;-79
2022/09/09 06:21:06;;;;;;;6.65;2.55;;;;;;;15.77;86.26;100607.84;5094844;28;20123;-79
2022/09/09 06:23:34;;;;;;;14.90;3.13;;;;;;;15.87;86.43;100601.44;5094592;28;20055;-79
2022/09/09 06:26:06;;;;;;;11.40;2.85;;;;;;;16.00;85.99;100611.00;5094838;28;20027;-79
2022/09/09 06:28:34;;;;;;;11.10;2.45;;;;;;;16.08;85.86;100604.69;5094395;28;20055;-80
2022/09/09 06:31:02;;;;;;;9.95;2.63;;;;;;;16.18;85.26;100607.19;5094939;28;20043;-78
2022/09/09 06:33:31;;;;;;;8.02;2.53;;;;;;;16.29;84.89;100609.69;5094882;28;20094;-78
2022/09/09 06:35:56;;;;;;;9.30;2.72;;;;;;;16.44;84.37;100604.06;5094224;28;20032;-80
2022/09/09 06:38:23;;;;;;;9.00;2.40;;;;;;;16.45;83.47;100607.66;5093902;28;20093;-78
2022/09/09 06:40:54;;;;;;;14.18;2.80;;;;;;;16.40;83.71;100609.50;5094179;28;20492;-79
2022/09/09 06:43:20;;;;;;;8.20;2.57;;;;;;;16.33;83.64;100591.84;5094137;28;20032;-80
2022/09/09 06:46:19;;;;;;;9.48;2.53;;;;;;;16.33;83.88;100595.41;5094024;28;20044;-81
2022/09/09 06:48:45;;;;;;;9.07;2.67;;;;;;;16.36;83.29;100607.78;5089930;28;20040;-80
2022/09/09 06:51:22;;;;;;;9.05;2.80;;;;;;;16.22;83.17;100600.00;5094405;28;20028;-79
2022/09/09 06:53:51;;;;;;;8.48;2.53;;;;;;;16.13;83.57;100594.84;5094016;28;20111;-80
2022/09/09 06:56:28;;;;;;;10.35;2.95;;;;;;;16.16;83.94;100601.00;5093998;28;20028;-81
2022/09/09 06:58:56;;;;;;;12.48;2.78;;;;;;;16.19;82.67;100590.31;5094291;28;20062;-81
2022/09/09 07:01:27;;;;;;;11.52;2.90;;;;;;;16.39;82.99;100602.41;5094500;28;20036;-81
2022/09/09 07:03:54;;;;;;;13.97;3.10;;;;;;;16.55;82.40;100587.91;5093888;28;20116;-81
2022/09/09 07:06:24;;;;;;;10.93;2.65;;;;;;;16.69;81.00;100593.84;5093852;28;20361;-81
2022/09/09 07:08:57;;;;;;;15.63;2.88;;;;;;;16.62;80.53;100589.56;5094119;28;20035;-81
2022/09/09 07:11:26;;;;;;;8.25;2.40;;;;;;;16.85;81.10;100605.16;5093827;28;20039;-81
2022/09/09 07:13:52;;;;;;;10.52;2.65;;;;;;;17.11;79.12;100617.13;5094050;28;20035;-81
2022/09/09 07:16:20;;;;;;;12.85;2.65;;;;;;;17.28;79.12;100602.53;5094593;28;20036;-80
2022/09/09 07:18:45;;;;;;;10.25;2.67;;;;;;;17.45;78.76;100602.16;5093864;28;20063;-80
2022/09/09 07:21:12;;;;;;;7.93;2.55;;;;;;;17.66;76.22;100597.28;5094289;28;20056;-80
2022/09/09 07:23:38;;;;;;;7.78;2.40;;;;;;;17.62;76.51;100595.59;5093697;28;20055;-80
2022/09/09 07:26:13;;;;;;;7.75;2.45;;;;;;;17.54;76.73;100601.09;5093180;28;20036;-80
2022/09/09 07:28:41;;;;;;;12.52;2.97;;;;;;;17.54;76.46;100598.41;5094448;28;20119;-81
2022/09/09 07:31:08;;;;;;;10.43;2.60;;;;;;;17.24;76.03;100587.47;5094058;28;20051;-81
2022/09/09 07:33:34;;;;;;;12.75;2.75;;;;;;;17.06;76.73;100603.00;5093890;28;20039;-81
2022/09/09 07:36:08;;;;;;;15.60;3.05;;;;;;;17.21;77.90;100592.00;5093342;28;20178;-80
2022/09/09 07:38:49;;;;;;;10.55;2.67;;;;;;;17.43;77.08;100585.31;5093617;28;20374;-80
2022/09/09 07:41:26;;;;;;;13.52;2.90;;;;;;;17.52;75.92;100594.91;5093480;28;20028;-80
2022/09/09 07:43:55;;;;;;;13.45;2.60;;;;;;;17.42;75.99;100604.00;5093131;28;20540;-80
2022/09/09 07:46:23;;;;;;;7.95;2.63;;;;;;;17.32;75.98;100603.34;5093423;28;20028;-80
2022/09/09 07:48:54;;;;;;;10.02;2.60;;;;;;;17.15;76.89;100610.81;5093452;28;20103;-80
2022/09/09 07:51:24;;;;;;;11.33;2.63;;;;;;;17.15;76.92;100606.34;5094149;28;20028;-80
2022/09/09 07:53:53;;;;;;;11.30;2.72;;;;;;;17.19;76.94;100601.84;5094000;28;20025;-80
2022/09/09 07:56:21;;;;;;;7.30;2.35;;;;;;;17.16;76.74;100610.78;5075439;28;20035;-80
2022/09/09 07:58:47;;;;;;;11.05;2.47;;;;;;;17.11;76.78;100604.66;5093612;28;20042;-80
2022/09/09 08:01:14;;;;;;;9.70;2.60;;;;;;;17.17;77.32;100603.63;5093427;28;20032;-80
2022/09/09 08:03:40;;;;;;;11.32;2.83;;;;;;;17.13;76.71;100600.19;5093122;28;20082;-80
2022/09/09 08:06:08;;;;;;;8.80;2.47;;;;;;;17.28;76.41;100601.66;5093332;28;20056;-80
2022/09/09 08:08:34;;;;;;;12.68;2.83;;;;;;;17.25;76.03;100599.91;5093359;28;20024;-80
2022/09/09 08:11:28;;;;;;;13.93;2.33;;;;;;;17.30;76.03;100615.88;5074941;28;20366;-81
2022/09/09 08:13:54;;;;;;;8.02;2.80;;;;;;;17.35;76.59;100597.06;5089724;28;20048;-80
2022/09/09 08:16:26;;;;;;;10.88;2.47;;;;;;;17.37;76.62;100592.56;5074990;28;20119;-80
2022/09/09 08:18:53;;;;;;;13.57;2.88;;;;;;;17.40;75.72;100606.72;5092870;28;20130;-80
2022/09/09 08:21:23;;;;;;;10.38;2.47;;;;;;;17.38;76.39;100610.34;5093158;28;20119;-80
2022/09/09 08:23:52;;;;;;;9.75;2.65;;;;;;;17.38;76.07;100605.00;5096007;28;20027;-80
2022/09/09 08:26:24;;;;;;;8.98;2.50;;;;;;;17.35;75.01;100611.31;5097270;28;20032;-80
2022/09/09 08:28:51;;;;;;;14.40;3.05;;;;;;;17.27;75.57;100600.78;5096603;28;20120;-80
2022/09/09 08:31:28;;;;;;;11.13;2.63;;;;;;;17.32;75.37;100607.81;5096899;28;20028;-80
2022/09/09 08:33:55;;;;;;;8.88;2.40;;;;;;;17.35;75.06;100607.75;5097524;28;20028;-80
2022/09/09 08:36:23;;;;;;;7.38;2.50;;;;;;;17.33;75.18;100596.19;5096357;28;20028;-80
2022/09/09 08:38:54;;;;;;;13.30;2.67;;;;;;;17.41;75.31;100613.81;5097170;28;20024;-80
2022/09/09 08:41:43;;;;;;;10.15;2.60;;;;;;;17.42;74.15;100628.06;5096560;28;20032;-80
2022/09/09 08:44:33;;;;;;;8.15;2.58;;;;;;;17.45;74.64;100623.53;5097062;28;20034;-80
2022/09/09 08:47:28;;;;;;;10.77;2.72;;;;;;;17.49;74.38;100616.34;5096313;28;20078;-80
2022/09/09 08:50:06;;;;;;;9.95;2.60;;;;;;;17.46;74.81;100633.31;5096380;28;20035;-80
2022/09/09 08:52:37;;;;;;;11.05;2.85;;;;;;;17.45;75.59;100620.88;5096664;28;20123;-80
2022/09/09 08:55:28;;;;;;;11.43;2.73;;;;;;;17.43;73.78;100624.47;5096312;28;20115;-80
2022/09/09 08:57:55;;;;;;;9.10;2.42;;;;;;;17.39;74.31;100623.69;5096019;28;20034;-80
2022/09/09 09:00:22;;;;;;;6.97;2.63;;;;;;;17.40;74.87;100629.91;5095730;28;20134;-80
2022/09/09 09:03:17;;;;;;;9.00;2.85;;;;;;;17.35;74.04;100627.31;5096092;28;20067;-80
2022/09/09 09:05:57;;;;;;;11.98;2.65;;;;;;;17.35;74.01;100642.47;5096148;28;20110;-80
2022/09/09 09:08:33;;;;;;;10.25;2.55;;;;;;;17.28;74.35;100639.91;5096637;28;20026;-80
2022/09/09 09:11:02;;;;;;;10.82;2.70;;;;;;;17.27;74.42;100637.28;5096583;28;20028;-80
2022/09/09 09:13:38;;;;;;;9.32;2.50;;;;;;;17.24;74.25;100640.88;5095953;28;20055;-80
2022/09/09 09:16:22;;;;;;;8.00;2.60;;;;;;;17.25;74.42;100639.09;5078359;28;20024;-80
2022/09/09 09:18:47;;;;;;;9.27;2.65;;;;;;;17.26;74.80;100635.53;5095895;28;20024;-80
2022/09/09 09:21:50;;;;;;;12.23;2.60;;;;;;;17.36;74.49;100655.78;5095497;28;20112;-80
2022/09/09 09:24:20;;;;;;;;;;;;;;;17.44;73.88;100645.81;5059014;28;20040;-80
2022/09/09 09:26:46;;;;;;;8.48;2.53;;;;;;;17.43;74.33;100649.41;5095507;28;20006;-79
2022/09/09 09:29:14;;;;;;;10.15;2.47;;;;;;;17.46;73.46;100651.13;5095411;28;20052;-80
2022/09/09 09:31:45;;;;;;;11.43;2.55;;;;;;;17.51;74.04;100649.22;5095476;28;20031;-80
2022/09/09 09:34:12;;;;;;;11.45;2.70;;;;;;;17.56;74.01;100642.03;5094681;28;20032;-80
2022/09/09 09:36:45;;;;;;;12.00;2.70;;;;;;;17.60;74.45;100646.41;5077165;28;20127;-80
2022/09/09 09:39:28;;;;;;;8.02;2.50;;;;;;;17.57;73.96;100646.44;5095832;28;20036;-80
2022/09/09 09:41:54;;;;;;;12.50;2.97;;;;;;;17.57;74.10;100654.47;5096262;28;20156;-79
2022/09/09 09:44:24;;;;;;;9.18;2.40;;;;;;;17.47;73.95;100645.78;5095289;28;20035;-80
2022/09/09 09:46:49;;;;;;;9.45;2.70;;;;;;;17.56;74.46;100636.69;5095729;28;20071;-79
2022/09/09 09:49:15;;;;;;;17.08;2.92;;;;;;;17.69;74.37;100637.31;5095741;28;20070;-80
2022/09/09 09:51:41;;;;;;;9.45;2.40;;;;;;;17.71;73.25;100646.16;5095159;28;20028;-80
2022/09/09 09:54:29;;;;;;;10.95;2.83;;;;;;;17.76;73.61;100634.47;5095446;28;20081;-79
2022/09/09 09:56:55;;;;;;;11.52;2.55;;;;;;;17.79;72.73;100633.53;5095160;28;20040;-80
2022/09/09 09:59:34;;;;;;;10.15;2.50;;;;;;;17.80;72.74;100629.06;5094845;28;20550;-79
2022/09/09 10:02:26;;;;;;;9.88;2.42;;;;;;;17.84;72.91;100645.00;5095030;28;20039;-79
2022/09/09 10:05:30;;;;;;;11.65;2.60;;;;;;;17.80;72.22;100631.72;5095162;28;20365;-79
2022/09/09 10:08:02;;;;;;;14.45;3.00;;;;;;;17.67;73.04;100647.13;5026244;28;20505;-79
2022/09/09 10:10:51;;;;;;;10.68;2.80;;;;;;;17.58;73.71;100647.31;5095439;28;20028;-79
2022/09/09 10:13:21;;;;;;;11.95;2.70;;;;;;;17.56;73.94;100651.81;5095127;28;20032;-80
2022/09/09 10:16:21;;;;;;;6.18;2.13;;;;;;;17.49;74.61;100643.06;5094630;28;20035;-79
2022/09/09 10:19:24;;;;;;;8.35;2.20;;;;;;;17.42;75.63;100657.44;5095003;28;20039;-79
2022/09/09 10:22:19;;;;;;;9.23;2.22;;;;;;;17.41;75.39;100651.22;5094541;28;20081;-79
2022/09/09 10:24:48;;;;;;;6.25;2.00;;;;;;;17.44;76.25;100647.63;5077554;28;20032;-80
2022/09/09 10:27:28;;;;;;;8.52;2.30;;;;;;;17.42;77.27;100647.63;5095203;28;20081;-79
2022/09/09 10:29:56;;;;;;;9.45;2.38;;;;;;;17.35;77.37;100658.50;5095348;28;20347;-79
2022/09/09 10:32:40;;;;;;;8.32;2.50;;;;;;;17.25;77.91;100663.13;5094183;28;20047;-79
2022/09/09 10:35:27;;;;;;;10.98;2.60;;;;;;;17.22;79.36;100666.75;5095254;28;20039;-79
2022/09/09 10:38:10;;;;;;;7.25;2.25;;;;;;;17.08;79.93;100668.78;5094284;28;20023;-80
2022/09/09 10:40:39;;;;;;;10.80;2.55;;;;;;;17.03;80.37;100659.97;5094604;28;20485;-79
2022/09/09 10:43:32;;;;;;;7.80;2.40;;;;;;;17.00;81.54;100665.38;5094194;28;20020;-80
2022/09/09 10:46:35;;;;;;;10.98;2.63;;;;;;;16.98;81.05;100660.06;5094172;28;20034;-79
2022/09/09 10:49:26;;;;;;;7.07;2.50;;;;;;;16.95;81.89;100664.59;5094465;28;20031;-79
2022/09/09 10:52:12;;;;;;;9.30;2.58;;;;;;;16.90;81.74;100661.13;5094346;28;20024;-80
2022/09/09 10:55:16;;;;;;;7.75;2.42;;;;;;;16.94;81.54;100665.50;5094052;28;20031;-79
2022/09/09 10:57:52;;;;;;;10.88;2.50;;;;;;;16.91;82.10;100657.53;5094310;28;20063;-80
2022/09/09 11:00:30;;;;;;;9.82;2.42;;;;;;;16.89;81.35;100646.03;5094302;28;20098;-80
2022/09/09 11:03:00;;;;;;;9.30;2.90;;;;;;;16.99;81.94;100660.94;5094313;28;20032;-79
2022/09/09 11:05:49;;;;;;;6.20;2.63;;;;;;;17.00;81.10;100652.03;5093931;28;20036;-79
2022/09/09 11:08:23;;;;;;;7.93;2.50;;;;;;;17.04;81.91;100659.06;5093108;28;20040;-80
2022/09/09 11:11:11;;;;;;;6.72;2.30;;;;;;;17.05;81.76;100662.66;5093822;28;20028;-79
2022/09/09 11:13:51;;;;;;;10.32;2.47;;;;;;;16.94;82.70;100647.69;5093830;28;20051;-79
2022/09/09 11:16:41;;;;;;;11.48;2.72;;;;;;;17.04;81.98;100656.41;5093839;28;20035;-79
2022/09/09 11:19:13;;;;;;;6.95;2.40;;;;;;;17.00;82.59;100662.69;5094096;28;20034;-80
2022/09/09 11:21:45;;;;;;;10.40;2.78;;;;;;;16.98;83.03;100660.06;5093795;28;20133;-79
2022/09/09 11:24:18;;;;;;;10.77;2.42;;;;;;;17.10;83.38;100650.09;5094089;28;20111;-79
2022/09/09 11:26:49;;;;;;;;;;;;;;;17.22;82.29;100656.06;5094103;28;20028;-79
2022/09/09 11:29:17;;;;;;;6.70;2.80;;;;;;;17.23;81.05;100655.16;5093833;28;20361;-79
2022/09/09 11:31:50;;;;;;;9.15;2.90;;;;;;;17.24;81.11;100658.69;5093612;28;20067;-79
2022/09/09 11:34:40;;;;;;;6.47;2.50;;;;;;;17.27;82.15;100653.31;5094412;28;20028;-79
2022/09/09 11:37:37;;;;;;;6.35;2.40;;;;;;;17.27;81.10;100647.97;5093675;28;20050;-79
2022/09/09 11:40:19;;;;;;;7.30;2.47;;;;;;;17.21;80.94;100640.06;5093878;28;20519;-79
2022/09/09 11:42:45;;;;;;;6.88;2.47;;;;;;;17.18;81.78;100657.03;5094161;28;20450;-79
2022/09/09 11:45:25;;;;;;;7.68;2.50;;;;;;;17.14;81.82;100647.31;5093486;28;20078;-79
2022/09/09 11:47:54;;;;;;;7.57;2.65;;;;;;;17.16;80.69;100648.16;5093426;28;20028;-79
2022/09/09 11:50:19;;;;;;;6.93;2.35;;;;;;;17.14;80.75;100652.66;5093602;28;20036;-79